sensor_id;sensor_type;location;lat;lon;timestamp;P1;durP1;ratioP1;P2;durP2;ratioP2
25639;SDS011;13497;48.322;16.204;2022-11-24T00:01:58;9.50;;;3.05;;
25639;SDS011;13497;48.322;16.204;2022-11-24T00:04:24;5.20;;;2.93;;
25639;SDS011;13497;48.322;16.204;2022-11-24T00:06:50;4.07;;;2.10;;
25639;SDS011;13497;48.322;16.204;2022-11-24T00:09:17;25.80;;;11.13;;
25639;SDS011;13497;48.322;16.204;2022-11-24T00:11:43;10.57;;;6.53;;
25639;SDS011;13497;48.322;16.204;2022-11-24T00:14:10;6.20;;;2.70;;
25639;SDS011;13497;48.322;16.204;2022-11-24T00:16:36;13.73;;;6.60;;
25639;SDS011;13497;48.322;16.204;2022-11-24T00:19:03;18.13;;;7.82;;
25639;SDS011;13497;48.322;16.204;2022-11-24T00:21:31;12.20;;;6.40;;
25639;SDS011;13497;48.322;16.204;2022-11-24T00:23:57;33.53;;;13.75;;
25639;SDS011;13497;48.322;16.204;2022-11-24T00:26:24;21.92;;;9.13;;
25639;SDS011;13497;48.322;16.204;2022-11-24T00:28:54;10.25;;;5.22;;
25639;SDS011;13497;48.322;16.204;2022-11-24T00:31:31;7.53;;;2.65;;
25639;SDS011;13497;48.322;16.204;2022-11-24T00:34:02;2.03;;;1.92;;
25639;SDS011;13497;48.322;16.204;2022-11-24T00:36:30;7.40;;;4.25;;
25639;SDS011;13497;48.322;16.204;2022-11-24T00:39:01;8.50;;;3.90;;
25639;SDS011;13497;48.322;16.204;2022-11-24T00:41:31;15.70;;;5.35;;
25639;SDS011;13497;48.322;16.204;2022-11-24T00:43:57;9.98;;;5.82;;
25639;SDS011;13497;48.322;16.204;2022-11-24T00:46:23;10.18;;;4.82;;
25639;SDS011;13497;48.322;16.204;2022-11-24T00:48:50;12.00;;;4.65;;
25639;SDS011;13497;48.322;16.204;2022-11-24T00:51:16;14.10;;;5.57;;
25639;SDS011;13497;48.322;16.204;2022-11-24T00:53:43;11.95;;;5.50;;
25639;SDS011;13497;48.322;16.204;2022-11-24T00:56:09;4.40;;;2.78;;
25639;SDS011;13497;48.322;16.204;2022-11-24T00:58:35;7.60;;;3.17;;
25639;SDS011;13497;48.322;16.204;2022-11-24T01:01:05;4.67;;;2.03;;
25639;SDS011;13497;48.322;16.204;2022-11-24T01:03:32;4.15;;;2.03;;
25639;SDS011;13497;48.322;16.204;2022-11-24T01:06:02;5.50;;;2.05;;
25639;SDS011;13497;48.322;16.204;2022-11-24T01:08:32;3.25;;;1.52;;
25639;SDS011;13497;48.322;16.204;2022-11-24T01:13:35;6.93;;;2.80;;
25639;SDS011;13497;48.322;16.204;2022-11-24T01:16:02;4.65;;;2.28;;
25639;SDS011;13497;48.322;16.204;2022-11-24T01:18:27;7.73;;;3.80;;
25639;SDS011;13497;48.322;16.204;2022-11-24T01:20:53;6.33;;;1.97;;
25639;SDS011;13497;48.322;16.204;2022-11-24T01:23:19;6.23;;;3.00;;
25639;SDS011;13497;48.322;16.204;2022-11-24T01:25:44;10.97;;;3.37;;
25639;SDS011;13497;48.322;16.204;2022-11-24T01:28:10;6.50;;;3.37;;
25639;SDS011;13497;48.322;16.204;2022-11-24T01:30:37;10.20;;;3.60;;
25639;SDS011;13497;48.322;16.204;2022-11-24T01:33:03;6.27;;;3.37;;
25639;SDS011;13497;48.322;16.204;2022-11-24T01:35:29;5.18;;;2.15;;
25639;SDS011;13497;48.322;16.204;2022-11-24T01:37:54;3.33;;;2.23;;
25639;SDS011;13497;48.322;16.204;2022-11-24T01:40:20;5.17;;;1.30;;
25639;SDS011;13497;48.322;16.204;2022-11-24T01:42:47;5.07;;;3.20;;
25639;SDS011;13497;48.322;16.204;2022-11-24T01:45:31;6.90;;;3.10;;
25639;SDS011;13497;48.322;16.204;2022-11-24T01:48:00;4.55;;;3.05;;
25639;SDS011;13497;48.322;16.204;2022-11-24T01:50:29;5.90;;;2.38;;
25639;SDS011;13497;48.322;16.204;2022-11-24T01:52:55;2.78;;;1.23;;
25639;SDS011;13497;48.322;16.204;2022-11-24T01:55:24;7.72;;;3.33;;
25639;SDS011;13497;48.322;16.204;2022-11-24T01:57:59;5.65;;;2.47;;
25639;SDS011;13497;48.322;16.204;2022-11-24T02:00:29;6.05;;;3.13;;
25639;SDS011;13497;48.322;16.204;2022-11-24T02:05:24;4.97;;;2.03;;
25639;SDS011;13497;48.322;16.204;2022-11-24T02:08:25;3.83;;;1.67;;
25639;SDS011;13497;48.322;16.204;2022-11-24T02:11:04;1.30;;;1.00;;
25639;SDS011;13497;48.322;16.204;2022-11-24T02:13:31;2.25;;;1.55;;
25639;SDS011;13497;48.322;16.204;2022-11-24T02:15:59;2.08;;;1.88;;
25639;SDS011;13497;48.322;16.204;2022-11-24T02:18:25;4.18;;;1.95;;
25639;SDS011;13497;48.322;16.204;2022-11-24T02:20:51;1.93;;;1.17;;
25639;SDS011;13497;48.322;16.204;2022-11-24T02:23:27;1.93;;;1.33;;
25639;SDS011;13497;48.322;16.204;2022-11-24T02:26:10;5.00;;;1.50;;
25639;SDS011;13497;48.322;16.204;2022-11-24T02:28:37;1.65;;;1.50;;
25639;SDS011;13497;48.322;16.204;2022-11-24T02:31:03;0.90;;;0.90;;
25639;SDS011;13497;48.322;16.204;2022-11-24T02:33:29;3.10;;;1.58;;
25639;SDS011;13497;48.322;16.204;2022-11-24T02:35:56;10.90;;;2.50;;
25639;SDS011;13497;48.322;16.204;2022-11-24T02:38:29;11.70;;;2.30;;
25639;SDS011;13497;48.322;16.204;2022-11-24T02:40:56;2.28;;;1.70;;
25639;SDS011;13497;48.322;16.204;2022-11-24T02:43:26;5.95;;;2.13;;
25639;SDS011;13497;48.322;16.204;2022-11-24T02:45:56;4.00;;;1.95;;
25639;SDS011;13497;48.322;16.204;2022-11-24T02:48:22;6.17;;;2.23;;
25639;SDS011;13497;48.322;16.204;2022-11-24T02:50:47;3.87;;;2.27;;
25639;SDS011;13497;48.322;16.204;2022-11-24T02:53:13;4.57;;;1.60;;
25639;SDS011;13497;48.322;16.204;2022-11-24T02:55:39;5.63;;;2.30;;
25639;SDS011;13497;48.322;16.204;2022-11-24T02:58:04;6.60;;;2.70;;
25639;SDS011;13497;48.322;16.204;2022-11-24T03:00:30;4.00;;;2.07;;
25639;SDS011;13497;48.322;16.204;2022-11-24T03:02:56;2.97;;;2.40;;
25639;SDS011;13497;48.322;16.204;2022-11-24T03:05:22;5.18;;;2.78;;
25639;SDS011;13497;48.322;16.204;2022-11-24T03:07:48;2.73;;;1.70;;
25639;SDS011;13497;48.322;16.204;2022-11-24T03:10:13;5.43;;;2.37;;
25639;SDS011;13497;48.322;16.204;2022-11-24T03:12:39;4.90;;;2.25;;
25639;SDS011;13497;48.322;16.204;2022-11-24T03:15:05;2.37;;;1.00;;
25639;SDS011;13497;48.322;16.204;2022-11-24T03:17:31;8.40;;;3.20;;
25639;SDS011;13497;48.322;16.204;2022-11-24T03:19:57;4.93;;;2.40;;
25639;SDS011;13497;48.322;16.204;2022-11-24T03:22:24;3.80;;;2.35;;
25639;SDS011;13497;48.322;16.204;2022-11-24T03:24:50;8.53;;;1.90;;
25639;SDS011;13497;48.322;16.204;2022-11-24T03:27:16;5.27;;;2.63;;
25639;SDS011;13497;48.322;16.204;2022-11-24T03:29:41;1.90;;;1.30;;
25639;SDS011;13497;48.322;16.204;2022-11-24T03:32:07;3.57;;;1.33;;
25639;SDS011;13497;48.322;16.204;2022-11-24T03:34:32;1.03;;;0.63;;
25639;SDS011;13497;48.322;16.204;2022-11-24T03:36:58;2.20;;;0.73;;
25639;SDS011;13497;48.322;16.204;2022-11-24T03:39:24;4.67;;;1.67;;
25639;SDS011;13497;48.322;16.204;2022-11-24T03:41:49;1.60;;;1.20;;
25639;SDS011;13497;48.322;16.204;2022-11-24T03:44:18;2.70;;;1.60;;
25639;SDS011;13497;48.322;16.204;2022-11-24T03:46:43;3.10;;;1.13;;
25639;SDS011;13497;48.322;16.204;2022-11-24T03:49:09;1.07;;;1.03;;
25639;SDS011;13497;48.322;16.204;2022-11-24T03:51:34;0.50;;;0.47;;
25639;SDS011;13497;48.322;16.204;2022-11-24T03:54:00;1.77;;;1.60;;
25639;SDS011;13497;48.322;16.204;2022-11-24T03:56:26;3.00;;;1.35;;
25639;SDS011;13497;48.322;16.204;2022-11-24T03:58:52;3.27;;;1.47;;
25639;SDS011;13497;48.322;16.204;2022-11-24T04:01:17;1.93;;;1.03;;
25639;SDS011;13497;48.322;16.204;2022-11-24T04:03:43;0.63;;;0.63;;
25639;SDS011;13497;48.322;16.204;2022-11-24T04:06:09;2.00;;;0.93;;
25639;SDS011;13497;48.322;16.204;2022-11-24T04:08:35;1.02;;;0.75;;
25639;SDS011;13497;48.322;16.204;2022-11-24T04:11:00;1.47;;;1.27;;
25639;SDS011;13497;48.322;16.204;2022-11-24T04:13:26;2.17;;;1.97;;
25639;SDS011;13497;48.322;16.204;2022-11-24T04:15:52;5.00;;;2.00;;
25639;SDS011;13497;48.322;16.204;2022-11-24T04:18:18;1.23;;;0.65;;
25639;SDS011;13497;48.322;16.204;2022-11-24T04:20:44;1.02;;;0.70;;
25639;SDS011;13497;48.322;16.204;2022-11-24T04:23:12;2.25;;;1.05;;
25639;SDS011;13497;48.322;16.204;2022-11-24T04:25:38;3.57;;;1.93;;
25639;SDS011;13497;48.322;16.204;2022-11-24T04:28:05;2.08;;;1.33;;
25639;SDS011;13497;48.322;16.204;2022-11-24T04:30:31;1.30;;;1.00;;
25639;SDS011;13497;48.322;16.204;2022-11-24T04:32:56;3.93;;;1.43;;
25639;SDS011;13497;48.322;16.204;2022-11-24T04:35:23;1.23;;;1.13;;
25639;SDS011;13497;48.322;16.204;2022-11-24T04:37:49;3.17;;;0.38;;
25639;SDS011;13497;48.322;16.204;2022-11-24T04:40:15;1.77;;;1.47;;
25639;SDS011;13497;48.322;16.204;2022-11-24T04:42:41;2.05;;;1.60;;
25639;SDS011;13497;48.322;16.204;2022-11-24T04:45:06;3.87;;;1.47;;
25639;SDS011;13497;48.322;16.204;2022-11-24T04:47:33;2.60;;;1.42;;
25639;SDS011;13497;48.322;16.204;2022-11-24T04:49:59;1.33;;;1.20;;
25639;SDS011;13497;48.322;16.204;2022-11-24T04:52:24;5.43;;;1.50;;
25639;SDS011;13497;48.322;16.204;2022-11-24T04:54:50;3.25;;;1.48;;
25639;SDS011;13497;48.322;16.204;2022-11-24T04:59:43;3.28;;;2.45;;
25639;SDS011;13497;48.322;16.204;2022-11-24T05:02:09;4.07;;;1.93;;
25639;SDS011;13497;48.322;16.204;2022-11-24T05:04:34;2.60;;;1.95;;
25639;SDS011;13497;48.322;16.204;2022-11-24T05:07:00;3.83;;;1.57;;
25639;SDS011;13497;48.322;16.204;2022-11-24T05:09:26;11.43;;;3.57;;
25639;SDS011;13497;48.322;16.204;2022-11-24T05:11:51;18.67;;;1.70;;
25639;SDS011;13497;48.322;16.204;2022-11-24T05:14:17;6.57;;;2.73;;
25639;SDS011;13497;48.322;16.204;2022-11-24T05:16:43;7.07;;;2.77;;
25639;SDS011;13497;48.322;16.204;2022-11-24T05:19:08;2.57;;;1.50;;
25639;SDS011;13497;48.322;16.204;2022-11-24T05:21:34;1.83;;;1.53;;
25639;SDS011;13497;48.322;16.204;2022-11-24T05:23:59;10.87;;;2.60;;
25639;SDS011;13497;48.322;16.204;2022-11-24T05:26:25;4.53;;;1.53;;
25639;SDS011;13497;48.322;16.204;2022-11-24T05:28:51;3.22;;;2.65;;
25639;SDS011;13497;48.322;16.204;2022-11-24T05:31:17;2.87;;;1.87;;
25639;SDS011;13497;48.322;16.204;2022-11-24T05:33:43;2.00;;;1.63;;
25639;SDS011;13497;48.322;16.204;2022-11-24T05:36:09;1.33;;;1.13;;
25639;SDS011;13497;48.322;16.204;2022-11-24T05:38:58;1.23;;;0.50;;
25639;SDS011;13497;48.322;16.204;2022-11-24T05:41:24;4.65;;;1.58;;
25639;SDS011;13497;48.322;16.204;2022-11-24T05:43:50;1.10;;;0.70;;
25639;SDS011;13497;48.322;16.204;2022-11-24T05:46:15;1.20;;;1.10;;
25639;SDS011;13497;48.322;16.204;2022-11-24T05:48:41;1.90;;;1.50;;
25639;SDS011;13497;48.322;16.204;2022-11-24T05:51:06;2.27;;;1.60;;
25639;SDS011;13497;48.322;16.204;2022-11-24T05:53:32;2.13;;;0.87;;
25639;SDS011;13497;48.322;16.204;2022-11-24T05:56:01;1.87;;;1.00;;
25639;SDS011;13497;48.322;16.204;2022-11-24T05:58:27;2.08;;;0.85;;
25639;SDS011;13497;48.322;16.204;2022-11-24T06:00:53;3.20;;;2.00;;
25639;SDS011;13497;48.322;16.204;2022-11-24T06:03:19;0.97;;;0.37;;
25639;SDS011;13497;48.322;16.204;2022-11-24T06:05:45;5.03;;;0.80;;
25639;SDS011;13497;48.322;16.204;2022-11-24T06:08:11;4.93;;;1.08;;
25639;SDS011;13497;48.322;16.204;2022-11-24T06:10:37;1.27;;;0.73;;
25639;SDS011;13497;48.322;16.204;2022-11-24T06:13:04;1.33;;;1.10;;
25639;SDS011;13497;48.322;16.204;2022-11-24T06:15:30;1.75;;;1.20;;
25639;SDS011;13497;48.322;16.204;2022-11-24T06:17:56;1.60;;;1.02;;
25639;SDS011;13497;48.322;16.204;2022-11-24T06:20:22;3.47;;;0.63;;
25639;SDS011;13497;48.322;16.204;2022-11-24T06:22:48;2.20;;;1.88;;
25639;SDS011;13497;48.322;16.204;2022-11-24T06:25:14;4.33;;;1.57;;
25639;SDS011;13497;48.322;16.204;2022-11-24T06:27:40;2.38;;;1.05;;
25639;SDS011;13497;48.322;16.204;2022-11-24T06:30:06;1.50;;;0.80;;
25639;SDS011;13497;48.322;16.204;2022-11-24T06:32:32;0.70;;;0.40;;
25639;SDS011;13497;48.322;16.204;2022-11-24T06:34:58;1.13;;;1.03;;
25639;SDS011;13497;48.322;16.204;2022-11-24T06:37:23;0.73;;;0.70;;
25639;SDS011;13497;48.322;16.204;2022-11-24T06:39:49;0.70;;;0.70;;
25639;SDS011;13497;48.322;16.204;2022-11-24T06:42:14;2.60;;;1.40;;
25639;SDS011;13497;48.322;16.204;2022-11-24T06:44:46;1.38;;;0.85;;
25639;SDS011;13497;48.322;16.204;2022-11-24T06:47:12;1.25;;;0.93;;
25639;SDS011;13497;48.322;16.204;2022-11-24T06:49:38;0.50;;;0.50;;
25639;SDS011;13497;48.322;16.204;2022-11-24T06:52:04;2.47;;;1.33;;
25639;SDS011;13497;48.322;16.204;2022-11-24T06:54:31;1.73;;;1.17;;
25639;SDS011;13497;48.322;16.204;2022-11-24T06:57:00;1.27;;;0.75;;
25639;SDS011;13497;48.322;16.204;2022-11-24T06:59:26;1.80;;;1.00;;
25639;SDS011;13497;48.322;16.204;2022-11-24T07:01:52;6.73;;;2.33;;
25639;SDS011;13497;48.322;16.204;2022-11-24T07:04:18;1.50;;;0.93;;
25639;SDS011;13497;48.322;16.204;2022-11-24T07:06:44;0.88;;;0.63;;
25639;SDS011;13497;48.322;16.204;2022-11-24T07:09:11;0.70;;;0.70;;
25639;SDS011;13497;48.322;16.204;2022-11-24T07:11:38;1.95;;;1.23;;
25639;SDS011;13497;48.322;16.204;2022-11-24T07:14:04;1.35;;;1.10;;
25639;SDS011;13497;48.322;16.204;2022-11-24T07:16:31;1.52;;;1.20;;
25639;SDS011;13497;48.322;16.204;2022-11-24T07:18:57;2.22;;;0.88;;
25639;SDS011;13497;48.322;16.204;2022-11-24T07:21:24;1.70;;;1.55;;
25639;SDS011;13497;48.322;16.204;2022-11-24T07:23:51;4.32;;;1.30;;
25639;SDS011;13497;48.322;16.204;2022-11-24T07:26:19;0.90;;;0.70;;
25639;SDS011;13497;48.322;16.204;2022-11-24T07:28:45;0.80;;;0.80;;
25639;SDS011;13497;48.322;16.204;2022-11-24T07:31:12;2.50;;;1.20;;
25639;SDS011;13497;48.322;16.204;2022-11-24T07:33:49;1.17;;;0.60;;
25639;SDS011;13497;48.322;16.204;2022-11-24T07:36:16;2.55;;;0.55;;
25639;SDS011;13497;48.322;16.204;2022-11-24T07:38:42;1.37;;;0.80;;
25639;SDS011;13497;48.322;16.204;2022-11-24T07:41:09;1.97;;;0.70;;
25639;SDS011;13497;48.322;16.204;2022-11-24T07:43:35;1.45;;;1.13;;
25639;SDS011;13497;48.322;16.204;2022-11-24T07:48:29;0.93;;;0.43;;
25639;SDS011;13497;48.322;16.204;2022-11-24T07:53:24;0.60;;;0.60;;
25639;SDS011;13497;48.322;16.204;2022-11-24T07:55:54;1.30;;;0.88;;
25639;SDS011;13497;48.322;16.204;2022-11-24T07:58:21;0.93;;;0.55;;
25639;SDS011;13497;48.322;16.204;2022-11-24T08:00:47;1.17;;;0.80;;
25639;SDS011;13497;48.322;16.204;2022-11-24T08:03:12;0.90;;;0.70;;
25639;SDS011;13497;48.322;16.204;2022-11-24T08:05:38;0.80;;;0.77;;
25639;SDS011;13497;48.322;16.204;2022-11-24T08:08:04;2.10;;;0.77;;
25639;SDS011;13497;48.322;16.204;2022-11-24T08:10:29;1.90;;;0.70;;
25639;SDS011;13497;48.322;16.204;2022-11-24T08:12:58;1.37;;;1.13;;
25639;SDS011;13497;48.322;16.204;2022-11-24T08:15:24;0.93;;;0.40;;
25639;SDS011;13497;48.322;16.204;2022-11-24T08:17:50;2.83;;;0.87;;
25639;SDS011;13497;48.322;16.204;2022-11-24T08:20:16;2.80;;;0.97;;
25639;SDS011;13497;48.322;16.204;2022-11-24T08:22:42;0.30;;;0.30;;
25639;SDS011;13497;48.322;16.204;2022-11-24T08:25:07;0.65;;;0.52;;
25639;SDS011;13497;48.322;16.204;2022-11-24T08:27:33;0.77;;;0.63;;
25639;SDS011;13497;48.322;16.204;2022-11-24T08:29:59;0.30;;;0.27;;
25639;SDS011;13497;48.322;16.204;2022-11-24T08:32:25;1.87;;;0.77;;
25639;SDS011;13497;48.322;16.204;2022-11-24T08:34:51;0.50;;;0.50;;
25639;SDS011;13497;48.322;16.204;2022-11-24T08:37:16;0.40;;;0.40;;
25639;SDS011;13497;48.322;16.204;2022-11-24T08:39:42;2.20;;;0.30;;
25639;SDS011;13497;48.322;16.204;2022-11-24T08:42:07;0.33;;;0.33;;
25639;SDS011;13497;48.322;16.204;2022-11-24T08:44:33;4.83;;;0.60;;
25639;SDS011;13497;48.322;16.204;2022-11-24T08:46:59;2.43;;;1.07;;
25639;SDS011;13497;48.322;16.204;2022-11-24T08:49:24;2.07;;;0.97;;
25639;SDS011;13497;48.322;16.204;2022-11-24T08:51:50;0.57;;;0.50;;
25639;SDS011;13497;48.322;16.204;2022-11-24T08:54:16;4.87;;;1.63;;
25639;SDS011;13497;48.322;16.204;2022-11-24T08:56:43;0.70;;;0.70;;
25639;SDS011;13497;48.322;16.204;2022-11-24T08:59:12;0.60;;;0.57;;
25639;SDS011;13497;48.322;16.204;2022-11-24T09:01:38;1.98;;;1.08;;
25639;SDS011;13497;48.322;16.204;2022-11-24T09:04:04;0.90;;;0.38;;
25639;SDS011;13497;48.322;16.204;2022-11-24T09:06:29;1.27;;;0.83;;
25639;SDS011;13497;48.322;16.204;2022-11-24T09:08:55;0.60;;;0.53;;
25639;SDS011;13497;48.322;16.204;2022-11-24T09:11:22;2.47;;;1.48;;
25639;SDS011;13497;48.322;16.204;2022-11-24T09:13:49;1.40;;;0.65;;
25639;SDS011;13497;48.322;16.204;2022-11-24T09:16:15;0.97;;;0.77;;
25639;SDS011;13497;48.322;16.204;2022-11-24T09:18:43;3.83;;;2.05;;
25639;SDS011;13497;48.322;16.204;2022-11-24T09:21:10;3.67;;;1.42;;
25639;SDS011;13497;48.322;16.204;2022-11-24T09:23:42;1.58;;;1.23;;
25639;SDS011;13497;48.322;16.204;2022-11-24T09:26:09;0.82;;;0.77;;
25639;SDS011;13497;48.322;16.204;2022-11-24T09:28:37;3.15;;;1.05;;
25639;SDS011;13497;48.322;16.204;2022-11-24T09:31:03;1.73;;;1.20;;
25639;SDS011;13497;48.322;16.204;2022-11-24T09:33:31;3.22;;;1.45;;
25639;SDS011;13497;48.322;16.204;2022-11-24T09:35:57;1.13;;;0.80;;
25639;SDS011;13497;48.322;16.204;2022-11-24T09:38:23;6.75;;;2.28;;
25639;SDS011;13497;48.322;16.204;2022-11-24T09:40:49;2.03;;;1.75;;
25639;SDS011;13497;48.322;16.204;2022-11-24T09:46:03;1.95;;;1.10;;
25639;SDS011;13497;48.322;16.204;2022-11-24T09:48:49;3.10;;;2.63;;
25639;SDS011;13497;48.322;16.204;2022-11-24T09:51:20;6.32;;;2.80;;
25639;SDS011;13497;48.322;16.204;2022-11-24T09:53:53;7.95;;;2.17;;
25639;SDS011;13497;48.322;16.204;2022-11-24T09:56:33;4.10;;;2.17;;
25639;SDS011;13497;48.322;16.204;2022-11-24T10:01:35;7.10;;;2.42;;
25639;SDS011;13497;48.322;16.204;2022-11-24T10:04:11;2.47;;;1.80;;
25639;SDS011;13497;48.322;16.204;2022-11-24T10:18:05;14.38;;;5.45;;
25639;SDS011;13497;48.322;16.204;2022-11-24T10:26:37;7.10;;;3.73;;
25639;SDS011;13497;48.322;16.204;2022-11-24T10:29:23;11.48;;;4.82;;
25639;SDS011;13497;48.322;16.204;2022-11-24T10:31:55;3.38;;;2.53;;
25639;SDS011;13497;48.322;16.204;2022-11-24T10:34:26;2.75;;;2.10;;
25639;SDS011;13497;48.322;16.204;2022-11-24T10:39:36;6.72;;;4.13;;
25639;SDS011;13497;48.322;16.204;2022-11-24T10:45:09;5.30;;;1.83;;
25639;SDS011;13497;48.322;16.204;2022-11-24T10:47:48;6.97;;;1.13;;
25639;SDS011;13497;48.322;16.204;2022-11-24T10:52:50;1.50;;;1.38;;
25639;SDS011;13497;48.322;16.204;2022-11-24T10:55:20;4.95;;;3.25;;
25639;SDS011;13497;48.322;16.204;2022-11-24T10:57:46;1.37;;;1.10;;
25639;SDS011;13497;48.322;16.204;2022-11-24T11:02:44;2.78;;;1.90;;
25639;SDS011;13497;48.322;16.204;2022-11-24T11:10:41;1.50;;;1.10;;
25639;SDS011;13497;48.322;16.204;2022-11-24T11:13:27;0.93;;;0.77;;
25639;SDS011;13497;48.322;16.204;2022-11-24T11:15:54;2.90;;;1.10;;
25639;SDS011;13497;48.322;16.204;2022-11-24T11:18:21;1.85;;;1.08;;
25639;SDS011;13497;48.322;16.204;2022-11-24T11:20:54;2.08;;;1.30;;
25639;SDS011;13497;48.322;16.204;2022-11-24T11:23:25;2.80;;;1.42;;
25639;SDS011;13497;48.322;16.204;2022-11-24T11:28:56;2.85;;;1.30;;
25639;SDS011;13497;48.322;16.204;2022-11-24T11:31:30;1.92;;;1.30;;
25639;SDS011;13497;48.322;16.204;2022-11-24T11:36:52;1.42;;;1.13;;
25639;SDS011;13497;48.322;16.204;2022-11-24T11:39:30;2.40;;;1.42;;
25639;SDS011;13497;48.322;16.204;2022-11-24T11:44:34;2.00;;;1.50;;
25639;SDS011;13497;48.322;16.204;2022-11-24T11:47:17;1.20;;;0.82;;
25639;SDS011;13497;48.322;16.204;2022-11-24T11:50:15;4.30;;;2.90;;
25639;SDS011;13497;48.322;16.204;2022-11-24T11:58:09;5.47;;;2.60;;
25639;SDS011;13497;48.322;16.204;2022-11-24T12:00:45;3.17;;;2.08;;
25639;SDS011;13497;48.322;16.204;2022-11-24T12:06:12;5.70;;;1.92;;
25639;SDS011;13497;48.322;16.204;2022-11-24T12:08:46;2.95;;;1.85;;
25639;SDS011;13497;48.322;16.204;2022-11-24T12:11:17;2.13;;;1.85;;
25639;SDS011;13497;48.322;16.204;2022-11-24T12:19:29;11.43;;;3.25;;
25639;SDS011;13497;48.322;16.204;2022-11-24T12:22:12;8.77;;;3.95;;
25639;SDS011;13497;48.322;16.204;2022-11-24T12:25:03;3.13;;;2.00;;
25639;SDS011;13497;48.322;16.204;2022-11-24T12:27:35;12.45;;;6.97;;
25639;SDS011;13497;48.322;16.204;2022-11-24T12:30:07;5.35;;;2.38;;
25639;SDS011;13497;48.322;16.204;2022-11-24T12:32:49;3.28;;;1.48;;
25639;SDS011;13497;48.322;16.204;2022-11-24T12:35:31;4.38;;;1.63;;
25639;SDS011;13497;48.322;16.204;2022-11-24T12:38:03;3.47;;;1.95;;
25639;SDS011;13497;48.322;16.204;2022-11-24T12:51:34;1.08;;;0.70;;
25639;SDS011;13497;48.322;16.204;2022-11-24T12:54:03;2.55;;;1.60;;
25639;SDS011;13497;48.322;16.204;2022-11-24T12:56:57;1.73;;;0.90;;
25639;SDS011;13497;48.322;16.204;2022-11-24T13:07:57;3.42;;;1.40;;
25639;SDS011;13497;48.322;16.204;2022-11-24T13:13:02;3.13;;;1.27;;
25639;SDS011;13497;48.322;16.204;2022-11-24T13:15:30;8.95;;;1.65;;
25639;SDS011;13497;48.322;16.204;2022-11-24T13:17:57;2.53;;;1.42;;
25639;SDS011;13497;48.322;16.204;2022-11-24T13:20:30;1.15;;;1.00;;
25639;SDS011;13497;48.322;16.204;2022-11-24T13:23:02;1.23;;;0.88;;
25639;SDS011;13497;48.322;16.204;2022-11-24T13:25:32;8.57;;;1.42;;
25639;SDS011;13497;48.322;16.204;2022-11-24T13:28:00;1.85;;;1.45;;
25639;SDS011;13497;48.322;16.204;2022-11-24T13:33:00;4.65;;;2.00;;
25639;SDS011;13497;48.322;16.204;2022-11-24T13:35:36;3.38;;;1.52;;
25639;SDS011;13497;48.322;16.204;2022-11-24T13:38:02;2.67;;;1.60;;
25639;SDS011;13497;48.322;16.204;2022-11-24T13:47:27;4.88;;;2.95;;
25639;SDS011;13497;48.322;16.204;2022-11-24T13:49:52;7.70;;;3.70;;
25639;SDS011;13497;48.322;16.204;2022-11-24T13:57:55;7.10;;;3.55;;
25639;SDS011;13497;48.322;16.204;2022-11-24T14:03:28;20.25;;;4.70;;
25639;SDS011;13497;48.322;16.204;2022-11-24T14:05:58;13.60;;;5.00;;
25639;SDS011;13497;48.322;16.204;2022-11-24T14:10:52;7.78;;;3.97;;
25639;SDS011;13497;48.322;16.204;2022-11-24T14:16:21;10.02;;;3.95;;
25639;SDS011;13497;48.322;16.204;2022-11-24T14:18:42;7.28;;;3.53;;
25639;SDS011;13497;48.322;16.204;2022-11-24T14:23:45;6.25;;;2.25;;
25639;SDS011;13497;48.322;16.204;2022-11-24T14:26:18;7.35;;;1.73;;
25639;SDS011;13497;48.322;16.204;2022-11-24T14:28:46;6.15;;;2.22;;
25639;SDS011;13497;48.322;16.204;2022-11-24T14:31:24;4.93;;;1.77;;
25639;SDS011;13497;48.322;16.204;2022-11-24T14:34:08;6.07;;;1.92;;
25639;SDS011;13497;48.322;16.204;2022-11-24T14:36:36;5.47;;;1.70;;
25639;SDS011;13497;48.322;16.204;2022-11-24T14:39:03;3.95;;;0.88;;
25639;SDS011;13497;48.322;16.204;2022-11-24T14:41:28;1.50;;;1.10;;
25639;SDS011;13497;48.322;16.204;2022-11-24T14:46:46;1.42;;;0.95;;
25639;SDS011;13497;48.322;16.204;2022-11-24T14:49:15;0.90;;;0.68;;
25639;SDS011;13497;48.322;16.204;2022-11-24T14:51:43;1.83;;;0.90;;
25639;SDS011;13497;48.322;16.204;2022-11-24T14:54:15;0.75;;;0.55;;
25639;SDS011;13497;48.322;16.204;2022-11-24T14:56:54;1.92;;;0.80;;
25639;SDS011;13497;48.322;16.204;2022-11-24T14:59:24;1.17;;;0.70;;
25639;SDS011;13497;48.322;16.204;2022-11-24T15:01:52;1.13;;;0.73;;
25639;SDS011;13497;48.322;16.204;2022-11-24T15:04:19;2.83;;;1.43;;
25639;SDS011;13497;48.322;16.204;2022-11-24T15:06:59;3.08;;;1.92;;
25639;SDS011;13497;48.322;16.204;2022-11-24T15:12:35;1.95;;;0.95;;
25639;SDS011;13497;48.322;16.204;2022-11-24T15:17:43;2.15;;;1.00;;
25639;SDS011;13497;48.322;16.204;2022-11-24T15:20:18;2.28;;;1.27;;
25639;SDS011;13497;48.322;16.204;2022-11-24T15:22:50;1.90;;;1.08;;
25639;SDS011;13497;48.322;16.204;2022-11-24T15:25:35;3.15;;;1.55;;
25639;SDS011;13497;48.322;16.204;2022-11-24T15:28:01;1.60;;;1.30;;
25639;SDS011;13497;48.322;16.204;2022-11-24T15:30:26;2.13;;;1.30;;
25639;SDS011;13497;48.322;16.204;2022-11-24T15:32:55;2.67;;;1.30;;
25639;SDS011;13497;48.322;16.204;2022-11-24T15:35:22;1.13;;;1.02;;
25639;SDS011;13497;48.322;16.204;2022-11-24T15:37:50;2.38;;;1.00;;
25639;SDS011;13497;48.322;16.204;2022-11-24T15:40:16;1.40;;;1.30;;
25639;SDS011;13497;48.322;16.204;2022-11-24T15:45:12;3.35;;;1.10;;
25639;SDS011;13497;48.322;16.204;2022-11-24T15:47:37;0.83;;;0.70;;
25639;SDS011;13497;48.322;16.204;2022-11-24T15:50:03;3.13;;;1.13;;
25639;SDS011;13497;48.322;16.204;2022-11-24T15:52:29;10.27;;;2.35;;
25639;SDS011;13497;48.322;16.204;2022-11-24T15:54:55;20.73;;;5.10;;
25639;SDS011;13497;48.322;16.204;2022-11-24T15:57:22;11.57;;;4.47;;
25639;SDS011;13497;48.322;16.204;2022-11-24T15:59:48;9.80;;;3.57;;
25639;SDS011;13497;48.322;16.204;2022-11-24T16:02:13;8.97;;;3.90;;
25639;SDS011;13497;48.322;16.204;2022-11-24T16:04:39;12.53;;;5.30;;
25639;SDS011;13497;48.322;16.204;2022-11-24T16:07:08;7.45;;;3.08;;
25639;SDS011;13497;48.322;16.204;2022-11-24T16:09:35;8.15;;;3.28;;
25639;SDS011;13497;48.322;16.204;2022-11-24T16:12:01;9.20;;;3.43;;
25639;SDS011;13497;48.322;16.204;2022-11-24T16:14:28;4.70;;;2.00;;
25639;SDS011;13497;48.322;16.204;2022-11-24T16:16:54;3.63;;;1.40;;
25639;SDS011;13497;48.322;16.204;2022-11-24T16:19:19;5.67;;;2.20;;
25639;SDS011;13497;48.322;16.204;2022-11-24T16:21:48;3.07;;;1.10;;
25639;SDS011;13497;48.322;16.204;2022-11-24T16:24:14;2.83;;;1.83;;
25639;SDS011;13497;48.322;16.204;2022-11-24T16:26:40;2.33;;;1.40;;
25639;SDS011;13497;48.322;16.204;2022-11-24T16:29:05;7.47;;;1.70;;
25639;SDS011;13497;48.322;16.204;2022-11-24T16:31:31;3.03;;;1.90;;
25639;SDS011;13497;48.322;16.204;2022-11-24T16:33:57;4.50;;;2.55;;
25639;SDS011;13497;48.322;16.204;2022-11-24T16:36:23;4.63;;;2.20;;
25639;SDS011;13497;48.322;16.204;2022-11-24T16:38:49;5.55;;;2.47;;
25639;SDS011;13497;48.322;16.204;2022-11-24T16:41:14;5.83;;;2.77;;
25639;SDS011;13497;48.322;16.204;2022-11-24T16:43:40;6.50;;;2.67;;
25639;SDS011;13497;48.322;16.204;2022-11-24T16:48:40;7.15;;;3.45;;
25639;SDS011;13497;48.322;16.204;2022-11-24T16:51:07;5.28;;;2.50;;
25639;SDS011;13497;48.322;16.204;2022-11-24T16:53:34;7.82;;;2.33;;
25639;SDS011;13497;48.322;16.204;2022-11-24T16:56:00;6.28;;;2.85;;